createdAt,value
2018-08-13T00:00:06.458Z,22.47
2018-08-13T00:02:36.059Z,22.50
2018-08-13T00:05:06.043Z,22.53
2018-08-13T00:07:35.643Z,22.49
2018-08-13T00:10:05.453Z,22.52
2018-08-13T00:12:35.043Z,22.44
2018-08-13T00:15:04.792Z,22.40
2018-08-13T00:17:34.371Z,22.37
2018-08-13T00:20:03.962Z,22.31
2018-08-13T00:22:33.520Z,22.21
2018-08-13T00:25:03.139Z,22.22
2018-08-13T00:27:32.723Z,22.22
2018-08-13T00:30:02.282Z,22.23
2018-08-13T00:32:31.910Z,22.23
2018-08-13T00:35:01.567Z,22.26
2018-08-13T00:37:31.119Z,22.25
2018-08-13T00:40:00.706Z,22.12
2018-08-13T00:42:30.299Z,22.18
2018-08-13T00:44:59.895Z,22.09
2018-08-13T00:47:29.413Z,22.18
2018-08-13T00:49:58.982Z,22.19
2018-08-13T00:52:28.527Z,22.25
2018-08-13T00:54:58.124Z,22.24
2018-08-13T00:57:27.685Z,22.27
2018-08-13T00:59:57.287Z,22.12
2018-08-13T01:02:26.812Z,22.24
2018-08-13T01:04:56.392Z,22.29
2018-08-13T01:07:26.028Z,22.20
2018-08-13T01:09:55.641Z,22.26
2018-08-13T01:12:25.296Z,22.23
2018-08-13T01:14:54.815Z,22.26
2018-08-13T01:17:24.444Z,22.10
2018-08-13T01:19:54.030Z,22.08
2018-08-13T01:22:23.591Z,22.04
2018-08-13T01:24:53.167Z,21.85
2018-08-13T01:27:27.855Z,21.86
2018-08-13T01:29:57.471Z,21.85
2018-08-13T01:32:27.025Z,21.77
2018-08-13T01:34:56.725Z,21.73
2018-08-13T01:37:26.936Z,21.63
2018-08-13T01:39:57.177Z,21.62
2018-08-13T01:42:26.683Z,21.65
2018-08-13T01:44:56.301Z,21.54
2018-08-13T01:47:25.839Z,21.53
2018-08-13T01:49:55.412Z,21.47
2018-08-13T01:52:24.993Z,21.41
2018-08-13T01:54:54.499Z,21.42
2018-08-13T01:57:24.144Z,21.41
2018-08-13T01:59:53.671Z,21.42
2018-08-13T02:02:23.202Z,21.43
2018-08-13T02:04:52.811Z,21.35
2018-08-13T02:07:22.476Z,21.33
2018-08-13T02:09:52.107Z,21.33
2018-08-13T02:12:21.742Z,21.19
2018-08-13T02:14:51.292Z,21.20
2018-08-13T02:17:20.935Z,21.09
2018-08-13T02:19:50.481Z,21.17
2018-08-13T02:22:20.128Z,21.19
2018-08-13T02:24:49.779Z,21.07
2018-08-13T02:27:19.323Z,21.11
2018-08-13T02:29:48.907Z,21.02
2018-08-13T02:32:18.450Z,21.03
2018-08-13T02:34:48.021Z,20.90
2018-08-13T02:37:17.644Z,20.78
2018-08-13T02:39:47.331Z,20.74
2018-08-13T02:42:16.912Z,20.79
2018-08-13T02:44:46.492Z,20.71
2018-08-13T02:47:15.985Z,20.64
2018-08-13T02:49:45.573Z,20.70
2018-08-13T02:52:15.164Z,20.66
2018-08-13T02:54:44.735Z,20.65
2018-08-13T02:57:14.329Z,20.59
2018-08-13T02:59:43.928Z,20.51
2018-08-13T03:02:13.564Z,20.48
2018-08-13T03:04:43.293Z,20.48
2018-08-13T03:07:12.856Z,20.41
2018-08-13T03:09:42.444Z,20.39
2018-08-13T03:12:11.989Z,20.57
2018-08-13T03:14:41.608Z,20.56
2018-08-13T03:17:12.460Z,20.44
2018-08-13T03:19:42.068Z,20.43
2018-08-13T03:22:11.635Z,20.52
2018-08-13T03:24:41.276Z,20.56
2018-08-13T03:27:10.871Z,20.60
2018-08-13T03:29:40.423Z,20.61
2018-08-13T03:32:10.045Z,20.56
2018-08-13T03:34:39.709Z,20.59
2018-08-13T03:37:09.248Z,20.57
2018-08-13T03:39:38.862Z,20.61
2018-08-13T03:42:08.391Z,20.65
2018-08-13T03:44:37.962Z,20.59
2018-08-13T03:47:07.547Z,20.67
2018-08-13T03:49:37.172Z,20.72
2018-08-13T03:52:08.851Z,20.58
2018-08-13T03:54:38.460Z,20.73
2018-08-13T03:57:08.080Z,20.75
2018-08-13T03:59:37.699Z,20.80
2018-08-13T04:02:07.232Z,20.78
2018-08-13T04:04:36.856Z,20.87
2018-08-13T04:07:06.606Z,20.98
2018-08-13T04:09:36.216Z,21.11
2018-08-13T04:12:05.843Z,21.36
2018-08-13T04:14:35.426Z,21.47
2018-08-13T04:17:05.208Z,21.42
2018-08-13T04:19:34.872Z,21.58
2018-08-13T04:22:04.547Z,21.69
2018-08-13T04:24:34.155Z,21.72
2018-08-13T04:27:03.786Z,21.26
2018-08-13T04:29:33.362Z,22.17
2018-08-13T04:32:02.930Z,22.50
2018-08-13T04:34:32.519Z,22.61
2018-08-13T04:37:02.183Z,22.29
2018-08-13T04:39:31.731Z,22.50
2018-08-13T04:42:01.367Z,22.47
2018-08-13T04:44:30.897Z,22.75
2018-08-13T04:47:00.451Z,23.07
2018-08-13T04:49:30.000Z,23.28
2018-08-13T04:51:59.648Z,23.32
2018-08-13T04:54:29.203Z,23.44
2018-08-13T04:56:58.817Z,23.78
2018-08-13T04:59:28.473Z,23.97
2018-08-13T05:01:58.095Z,24.05
2018-08-13T05:04:27.763Z,24.25
2018-08-13T05:06:57.352Z,24.56
2018-08-13T05:09:27.192Z,24.36
2018-08-13T05:11:56.725Z,24.69
2018-08-13T05:14:26.397Z,24.82
2018-08-13T05:16:56.591Z,24.86
2018-08-13T05:19:26.167Z,24.80
2018-08-13T05:21:55.805Z,25.11
2018-08-13T05:24:25.375Z,25.33
2018-08-13T05:26:55.028Z,25.60
2018-08-13T05:29:24.599Z,25.72
2018-08-13T05:31:54.227Z,25.80
2018-08-13T05:34:23.823Z,25.94
2018-08-13T05:36:53.445Z,26.03
2018-08-13T05:39:22.978Z,26.01
2018-08-13T05:41:52.683Z,26.04
2018-08-13T05:44:22.232Z,26.28
2018-08-13T05:46:51.771Z,26.25
2018-08-13T05:49:21.318Z,26.07
2018-08-13T05:51:51.247Z,26.24
2018-08-13T05:54:21.107Z,26.24
2018-08-13T05:56:50.719Z,26.58
2018-08-13T05:59:20.315Z,26.49
2018-08-13T06:01:49.923Z,26.55
2018-08-13T06:04:19.607Z,26.32
2018-08-13T06:06:49.390Z,26.85
2018-08-13T06:09:18.938Z,26.89
2018-08-13T06:11:48.588Z,26.89
2018-08-13T06:14:18.171Z,26.87
2018-08-13T06:16:47.754Z,26.75
2018-08-13T06:19:17.348Z,26.57
2018-08-13T06:21:47.028Z,26.56
2018-08-13T06:24:16.668Z,26.92
2018-08-13T06:26:46.416Z,27.13
2018-08-13T06:29:16.075Z,27.28
2018-08-13T06:31:45.667Z,27.30
2018-08-13T06:34:15.271Z,27.32
2018-08-13T06:36:44.830Z,27.42
2018-08-13T06:39:14.503Z,27.38
2018-08-13T06:41:44.243Z,27.33
2018-08-13T06:44:13.921Z,27.43
2018-08-13T06:46:43.563Z,27.45
2018-08-13T06:49:13.232Z,27.89
2018-08-13T06:51:42.903Z,27.89
2018-08-13T06:54:12.534Z,28.03
2018-08-13T06:56:42.108Z,28.23
2018-08-13T06:59:11.756Z,28.30
2018-08-13T07:01:41.291Z,28.07
2018-08-13T07:04:10.960Z,28.18
2018-08-13T07:06:40.589Z,28.26
2018-08-13T07:09:11.227Z,28.44
2018-08-13T07:11:40.789Z,28.69
2018-08-13T07:14:10.404Z,28.47
2018-08-13T07:16:39.982Z,28.77
2018-08-13T07:19:09.485Z,29.03
2018-08-13T07:21:39.123Z,29.07
2018-08-13T07:24:08.880Z,29.06
2018-08-13T07:26:38.512Z,29.12
2018-08-13T07:29:08.234Z,29.49
2018-08-13T07:31:37.872Z,29.62
2018-08-13T07:34:07.744Z,29.69
2018-08-13T07:36:37.487Z,29.57
2018-08-13T07:39:09.572Z,29.77
2018-08-13T07:41:39.425Z,29.80
2018-08-13T07:44:09.444Z,29.23
2018-08-13T07:46:39.132Z,29.69
2018-08-13T07:49:08.847Z,29.84
2018-08-13T07:51:38.459Z,29.78
2018-08-13T07:54:08.186Z,29.79
2018-08-13T07:56:37.753Z,29.80
2018-08-13T07:59:07.376Z,29.65
2018-08-13T08:01:37.066Z,29.72
2018-08-13T08:04:06.654Z,29.73
2018-08-13T08:06:36.200Z,29.76
2018-08-13T08:09:09.514Z,29.85
2018-08-13T08:11:39.191Z,30.17
2018-08-13T08:14:09.186Z,30.13
2018-08-13T08:16:38.877Z,30.09
2018-08-13T08:19:08.392Z,29.81
2018-08-13T08:21:37.976Z,30.15
2018-08-13T08:24:07.823Z,30.28
2018-08-13T08:26:38.384Z,30.13
2018-08-13T08:29:09.338Z,30.20
2018-08-13T08:31:39.111Z,30.49
2018-08-13T08:34:09.436Z,30.48
2018-08-13T08:36:39.256Z,30.22
2018-08-13T08:39:12.229Z,29.94
2018-08-13T08:41:41.880Z,30.12
2018-08-13T08:44:11.967Z,30.58
2018-08-13T08:46:42.108Z,30.83
2018-08-13T08:49:11.728Z,30.83
2018-08-13T08:51:41.363Z,31.11
2018-08-13T08:54:11.689Z,31.29
2018-08-13T08:56:41.320Z,31.08
2018-08-13T08:59:11.220Z,31.14
2018-08-13T09:01:40.955Z,31.19
2018-08-13T09:04:10.666Z,31.16
2018-08-13T09:06:40.280Z,31.16
2018-08-13T09:09:12.475Z,30.94
2018-08-13T09:11:42.866Z,31.32
2018-08-13T09:14:12.562Z,31.46
2018-08-13T09:16:44.627Z,31.48
2018-08-13T09:19:25.038Z,31.46
2018-08-13T09:22:04.367Z,31.38
2018-08-13T09:24:44.800Z,31.35
2018-08-13T09:27:25.223Z,31.53
2018-08-13T09:30:05.716Z,31.53
2018-08-13T09:32:46.213Z,31.51
2018-08-13T09:35:19.407Z,31.44
2018-08-13T09:37:48.947Z,31.60
2018-08-13T09:40:18.620Z,31.53
2018-08-13T09:42:48.291Z,30.99
2018-08-13T09:45:18.135Z,31.70
2018-08-13T09:47:47.900Z,31.74
2018-08-13T09:50:18.539Z,31.70
2018-08-13T09:52:48.920Z,31.84
2018-08-13T09:55:19.077Z,31.75
2018-08-13T09:57:49.329Z,31.71
2018-08-13T10:00:25.275Z,31.70
2018-08-13T10:02:54.951Z,31.67
2018-08-13T10:05:24.708Z,31.83
2018-08-13T10:07:54.257Z,31.83
2018-08-13T10:10:23.947Z,31.39
2018-08-13T10:12:53.746Z,31.55
2018-08-13T10:15:23.597Z,31.79
2018-08-13T10:17:53.307Z,31.82
2018-08-13T10:20:22.943Z,31.92
2018-08-13T10:22:52.587Z,31.78
2018-08-13T10:25:22.210Z,31.91
2018-08-13T10:27:51.739Z,32.02
2018-08-13T10:30:21.480Z,32.05
2018-08-13T10:32:51.109Z,32.22
2018-08-13T10:35:20.699Z,32.27
2018-08-13T10:37:50.292Z,32.03
2018-08-13T10:40:20.387Z,31.96
2018-08-13T10:42:50.075Z,32.06
2018-08-13T10:45:19.688Z,32.05
2018-08-13T10:47:49.395Z,32.00
2018-08-13T10:50:18.918Z,32.05
2018-08-13T10:52:48.522Z,32.21
2018-08-13T10:55:18.195Z,32.20
2018-08-13T10:57:47.891Z,32.15
2018-08-13T11:00:17.947Z,32.17
2018-08-13T11:02:47.653Z,32.18
2018-08-13T11:05:17.367Z,32.21
2018-08-13T11:07:47.011Z,32.20
2018-08-13T11:10:17.038Z,31.96
2018-08-13T11:12:46.660Z,32.19
2018-08-13T11:15:18.871Z,32.32
2018-08-13T11:17:48.518Z,32.40
2018-08-13T11:20:18.347Z,31.76
2018-08-13T11:22:48.196Z,32.39
2018-08-13T11:25:17.954Z,32.35
2018-08-13T11:27:47.474Z,32.26
2018-08-13T11:30:17.736Z,32.45
2018-08-13T11:32:47.363Z,32.46
2018-08-13T11:35:17.191Z,32.42
2018-08-13T11:37:46.799Z,32.44
2018-08-13T11:40:17.540Z,32.34
2018-08-13T11:42:47.249Z,32.29
2018-08-13T11:45:16.803Z,32.20
2018-08-13T11:47:46.459Z,32.22
2018-08-13T11:50:18.576Z,32.34
2018-08-13T11:52:49.351Z,32.21
2018-08-13T11:55:19.209Z,32.13
2018-08-13T11:57:49.822Z,32.07
2018-08-13T12:00:19.505Z,32.15
2018-08-13T12:02:49.220Z,32.28
2018-08-13T12:05:18.794Z,32.27
2018-08-13T12:07:48.467Z,32.36
2018-08-13T12:10:18.063Z,32.24
2018-08-13T12:12:47.735Z,32.27
2018-08-13T12:15:17.282Z,32.26
2018-08-13T12:17:47.032Z,32.21
2018-08-13T12:20:18.557Z,32.38
2018-08-13T12:22:48.455Z,32.55
2018-08-13T12:25:26.502Z,32.41
2018-08-13T12:27:56.326Z,32.53
2018-08-13T12:30:26.185Z,32.51
2018-08-13T12:32:56.466Z,32.58
2018-08-13T12:35:26.063Z,32.44
2018-08-13T12:37:55.723Z,32.61
2018-08-13T12:40:25.315Z,32.60
2018-08-13T12:42:54.964Z,32.62
2018-08-13T12:45:24.670Z,32.60
2018-08-13T12:47:54.316Z,32.65
2018-08-13T12:50:24.040Z,32.62
2018-08-13T12:52:53.647Z,32.60
2018-08-13T12:55:23.423Z,32.64
2018-08-13T12:57:52.987Z,32.69
2018-08-13T13:00:22.694Z,32.65
2018-08-13T13:02:52.235Z,32.77
2018-08-13T13:05:21.927Z,32.77
2018-08-13T13:07:51.535Z,32.76
2018-08-13T13:10:21.131Z,32.74
2018-08-13T13:12:50.723Z,32.71
2018-08-13T13:15:21.148Z,32.69
2018-08-13T13:17:50.853Z,32.75
2018-08-13T13:20:22.536Z,32.76
2018-08-13T13:22:52.497Z,32.69
2018-08-13T13:25:22.136Z,32.76
2018-08-13T13:27:51.860Z,32.70
2018-08-13T13:30:21.540Z,32.71
2018-08-13T13:32:51.347Z,32.51
2018-08-13T13:35:24.932Z,32.67
2018-08-13T13:37:54.648Z,32.73
2018-08-13T13:40:24.297Z,32.74
2018-08-13T13:42:53.873Z,32.80
2018-08-13T13:45:23.455Z,32.81
2018-08-13T13:47:53.104Z,32.88
2018-08-13T13:50:22.733Z,32.89
2018-08-13T13:52:52.259Z,32.96
2018-08-13T13:55:21.924Z,32.85
2018-08-13T13:57:51.511Z,32.87
2018-08-13T14:00:21.948Z,32.81
2018-08-13T14:02:52.543Z,32.79
2018-08-13T14:05:22.217Z,32.74
2018-08-13T14:07:51.871Z,32.77
2018-08-13T14:10:23.163Z,31.96
2018-08-13T14:12:52.895Z,32.70
2018-08-13T14:15:23.319Z,32.57
2018-08-13T14:17:53.151Z,32.58
2018-08-13T14:20:22.851Z,32.55
2018-08-13T14:22:52.579Z,32.58
2018-08-13T14:25:22.245Z,32.50
2018-08-13T14:27:51.849Z,32.48
2018-08-13T14:30:23.665Z,32.52
2018-08-13T14:32:53.480Z,32.48
2018-08-13T14:35:23.932Z,32.40
2018-08-13T14:37:53.655Z,32.46
2018-08-13T14:40:23.338Z,31.82
2018-08-13T14:42:53.023Z,32.37
2018-08-13T14:45:22.782Z,32.24
2018-08-13T14:47:52.969Z,32.23
2018-08-13T14:50:22.633Z,32.25
2018-08-13T14:52:52.288Z,32.17
2018-08-13T14:55:22.839Z,32.26
2018-08-13T14:57:52.416Z,32.22
2018-08-13T15:00:24.495Z,32.19
2018-08-13T15:02:55.130Z,32.26
2018-08-13T15:05:24.801Z,32.23
2018-08-13T15:07:54.375Z,32.14
2018-08-13T15:10:25.179Z,32.11
2018-08-13T15:12:55.020Z,32.01
2018-08-13T15:15:24.699Z,31.95
2018-08-13T15:17:54.247Z,31.81
2018-08-13T15:20:26.987Z,31.77
2018-08-13T15:22:56.674Z,31.61
2018-08-13T15:25:26.527Z,31.60
2018-08-13T15:27:56.233Z,31.62
2018-08-13T15:30:26.261Z,31.56
2018-08-13T15:32:55.871Z,31.58
2018-08-13T15:35:25.620Z,31.53
2018-08-13T15:37:55.116Z,31.46
2018-08-13T15:40:24.754Z,31.43
2018-08-13T15:42:54.384Z,31.36
2018-08-13T15:45:24.761Z,31.32
2018-08-13T15:47:54.357Z,31.25
2018-08-13T15:50:24.512Z,31.21
2018-08-13T15:52:54.191Z,31.23
2018-08-13T15:55:23.907Z,31.14
2018-08-13T15:57:53.522Z,31.10
2018-08-13T16:00:25.064Z,31.02
2018-08-13T16:02:54.985Z,30.98
2018-08-13T16:05:24.665Z,30.89
2018-08-13T16:07:54.492Z,30.86
2018-08-13T16:10:24.065Z,30.81
2018-08-13T16:12:55.295Z,30.75
2018-08-13T16:15:25.329Z,30.69
2018-08-13T16:17:54.932Z,30.70
2018-08-13T16:20:24.619Z,30.63
2018-08-13T16:22:54.135Z,30.53
2018-08-13T16:25:23.754Z,30.46
2018-08-13T16:27:53.360Z,30.41
2018-08-13T16:30:30.613Z,30.36
2018-08-13T16:33:00.352Z,30.26
2018-08-13T16:35:30.087Z,30.26
2018-08-13T16:37:59.595Z,30.17
2018-08-13T16:40:29.635Z,30.12
2018-08-13T16:42:59.269Z,30.07
2018-08-13T16:45:28.980Z,29.98
2018-08-13T16:47:58.615Z,29.91
2018-08-13T16:50:30.144Z,29.87
2018-08-13T16:53:00.211Z,29.76
2018-08-13T16:55:30.994Z,29.68
2018-08-13T16:58:01.384Z,29.63
2018-08-13T17:00:31.956Z,29.52
2018-08-13T17:03:01.883Z,29.40
2018-08-13T17:05:33.223Z,29.34
2018-08-13T17:08:02.914Z,29.28
2018-08-13T17:10:32.492Z,29.20
2018-08-13T17:13:02.167Z,29.12
2018-08-13T17:15:32.432Z,29.04
2018-08-13T17:18:02.982Z,28.95
2018-08-13T17:20:36.118Z,28.86
2018-08-13T17:23:05.691Z,28.77
2018-08-13T17:25:35.500Z,28.63
2018-08-13T17:28:05.179Z,28.50
2018-08-13T17:30:34.867Z,28.43
2018-08-13T17:33:04.613Z,28.29
2018-08-13T17:35:35.387Z,28.13
2018-08-13T17:38:09.593Z,28.03
2018-08-13T17:40:39.309Z,27.88
2018-08-13T17:43:10.434Z,27.84
2018-08-13T17:45:39.882Z,27.77
2018-08-13T17:48:10.305Z,27.69
2018-08-13T17:50:39.925Z,27.62
2018-08-13T17:53:10.224Z,27.49
2018-08-13T17:55:39.895Z,27.42
2018-08-13T17:58:09.552Z,27.35
2018-08-13T18:00:39.248Z,27.30
2018-08-13T18:03:08.920Z,27.22
2018-08-13T18:05:38.554Z,27.13
2018-08-13T18:08:08.401Z,27.06
2018-08-13T18:10:38.046Z,26.98
2018-08-13T18:13:08.908Z,26.95
2018-08-13T18:15:38.705Z,26.89
2018-08-13T18:18:08.245Z,26.85
2018-08-13T18:20:37.836Z,26.79
2018-08-13T18:23:07.564Z,26.75
2018-08-13T18:25:37.232Z,26.66
2018-08-13T18:28:06.876Z,26.62
2018-08-13T18:30:36.587Z,26.58
2018-08-13T18:33:06.565Z,26.53
2018-08-13T18:35:36.103Z,26.47
2018-08-13T18:38:05.711Z,26.47
2018-08-13T18:40:35.507Z,26.39
2018-08-13T18:43:05.163Z,26.32
2018-08-13T18:45:34.787Z,26.28
2018-08-13T18:48:04.444Z,26.24
2018-08-13T18:50:34.051Z,26.19
2018-08-13T18:53:03.753Z,26.12
2018-08-13T18:55:33.357Z,26.09
2018-08-13T18:58:03.047Z,26.06
2018-08-13T19:00:32.816Z,26.05
2018-08-13T19:03:03.094Z,26.00
2018-08-13T19:05:34.300Z,25.97
2018-08-13T19:08:04.039Z,25.92
2018-08-13T19:10:33.616Z,25.87
2018-08-13T19:13:03.183Z,25.80
2018-08-13T19:15:32.751Z,25.73
2018-08-13T19:18:02.345Z,25.66
2018-08-13T19:20:32.042Z,25.65
2018-08-13T19:23:01.715Z,25.33
2018-08-13T19:25:31.420Z,25.28
2018-08-13T19:28:01.052Z,25.12
2018-08-13T19:30:30.792Z,24.88
2018-08-13T19:33:00.401Z,24.65
2018-08-13T19:35:30.053Z,24.54
2018-08-13T19:37:59.588Z,24.50
2018-08-13T19:40:29.411Z,24.38
2018-08-13T19:42:58.932Z,23.57
2018-08-13T19:45:28.487Z,24.20
2018-08-13T19:47:58.115Z,24.20
2018-08-13T19:50:27.664Z,24.18
2018-08-13T19:52:57.269Z,24.21
2018-08-13T19:55:26.864Z,24.17
2018-08-13T19:57:56.495Z,24.11
2018-08-13T20:00:27.403Z,24.05
2018-08-13T20:02:57.136Z,24.01
2018-08-13T20:05:27.795Z,23.89
2018-08-13T20:07:57.454Z,24.01
2018-08-13T20:10:27.005Z,23.91
2018-08-13T20:12:56.755Z,23.79
2018-08-13T20:15:26.311Z,23.76
2018-08-13T20:17:55.988Z,23.74
2018-08-13T20:20:25.585Z,23.67
2018-08-13T20:22:55.245Z,23.79
2018-08-13T20:25:24.899Z,23.78
2018-08-13T20:27:54.503Z,23.75
2018-08-13T20:30:24.179Z,23.68
2018-08-13T20:32:54.102Z,23.76
2018-08-13T20:35:23.663Z,23.70
2018-08-13T20:37:53.249Z,23.71
2018-08-13T20:40:22.976Z,23.58
2018-08-13T20:42:52.622Z,23.56
2018-08-13T20:45:22.647Z,23.48
2018-08-13T20:47:52.242Z,23.48
2018-08-13T20:50:24.008Z,23.43
2018-08-13T20:52:54.440Z,23.39
2018-08-13T20:55:28.276Z,23.30
2018-08-13T20:57:57.879Z,23.35
2018-08-13T21:00:29.120Z,23.24
2018-08-13T21:02:58.835Z,23.30
2018-08-13T21:05:28.478Z,23.40
2018-08-13T21:07:58.048Z,23.35
2018-08-13T21:10:27.747Z,23.38
2018-08-13T21:12:57.363Z,23.40
2018-08-13T21:15:27.019Z,23.39
2018-08-13T21:17:56.530Z,23.41
2018-08-13T21:20:27.904Z,23.30
2018-08-13T21:22:57.727Z,23.28
2018-08-13T21:25:27.367Z,23.29
2018-08-13T21:27:57.056Z,23.34
2018-08-13T21:30:26.659Z,23.40
2018-08-13T21:32:56.267Z,23.33
2018-08-13T21:35:26.407Z,23.23
2018-08-13T21:37:55.951Z,23.19
2018-08-13T21:40:25.546Z,23.27
2018-08-13T21:42:55.213Z,23.33
2018-08-13T21:45:24.792Z,23.35
2018-08-13T21:47:54.465Z,23.20
2018-08-13T21:50:24.221Z,23.11
2018-08-13T21:52:53.807Z,23.08
2018-08-13T21:55:23.382Z,23.15
2018-08-13T21:57:53.026Z,23.09
2018-08-13T22:00:28.016Z,23.01
2018-08-13T22:02:59.784Z,23.04
2018-08-13T22:05:29.439Z,22.99
2018-08-13T22:07:59.300Z,22.86
2018-08-13T22:10:28.974Z,22.94
2018-08-13T22:12:58.587Z,23.00
2018-08-13T22:15:29.098Z,22.84
2018-08-13T22:18:04.183Z,22.84
2018-08-13T22:20:35.068Z,22.78
2018-08-13T22:23:05.552Z,22.92
2018-08-13T22:25:41.798Z,22.97
2018-08-13T22:28:12.280Z,23.00
2018-08-13T22:30:42.064Z,22.96
2018-08-13T22:33:12.571Z,22.88
2018-08-13T22:35:42.150Z,22.88
2018-08-13T22:38:11.827Z,22.92
2018-08-13T22:40:41.771Z,22.95
2018-08-13T22:43:11.335Z,22.96
2018-08-13T22:45:40.879Z,23.00
2018-08-13T22:48:10.560Z,22.93
2018-08-13T22:50:40.107Z,22.94
2018-08-13T22:53:09.700Z,22.89
2018-08-13T22:55:39.447Z,22.88
2018-08-13T22:58:09.079Z,22.88
2018-08-13T23:00:38.718Z,22.78
2018-08-13T23:03:08.471Z,22.83
2018-08-13T23:05:38.059Z,22.69
2018-08-13T23:08:07.888Z,22.76
2018-08-13T23:10:37.447Z,22.78
2018-08-13T23:13:14.560Z,22.69
2018-08-13T23:15:44.251Z,22.71
2018-08-13T23:18:13.918Z,22.68
2018-08-13T23:20:43.629Z,22.72
2018-08-13T23:23:13.239Z,22.67
2018-08-13T23:25:42.840Z,22.59
2018-08-13T23:28:12.729Z,22.64
2018-08-13T23:30:42.275Z,22.67
2018-08-13T23:33:11.915Z,22.69
2018-08-13T23:35:41.460Z,22.70
2018-08-13T23:38:11.048Z,22.68
2018-08-13T23:40:40.625Z,22.66
2018-08-13T23:43:10.220Z,22.06
2018-08-13T23:45:39.829Z,22.63
2018-08-13T23:48:09.335Z,22.60
2018-08-13T23:50:38.972Z,22.64
2018-08-13T23:53:08.636Z,22.61
2018-08-13T23:55:39.515Z,22.60
2018-08-13T23:58:12.130Z,21.89
